sensor_id;sensor_type;location;lat;lon;timestamp;pressure;altitude;pressure_sealevel;temperature;humidity
78855;BME280;68206;59.956;30.234;2023-10-08T00:01:38;98134.53;;;2.91;77.11
78855;BME280;68206;59.956;30.234;2023-10-08T00:04:10;98117.91;;;2.92;77.27
78855;BME280;68206;59.956;30.234;2023-10-08T00:06:39;98130.69;;;2.99;77.23
78855;BME280;68206;59.956;30.234;2023-10-08T00:09:09;98126.78;;;2.88;76.84
78855;BME280;68206;59.956;30.234;2023-10-08T00:11:40;98126.00;;;2.86;77.07
78855;BME280;68206;59.956;30.234;2023-10-08T00:14:10;98128.63;;;2.86;77.27
78855;BME280;68206;59.956;30.234;2023-10-08T00:16:46;98129.25;;;2.92;76.96
78855;BME280;68206;59.956;30.234;2023-10-08T00:19:17;98136.44;;;2.87;77.17
78855;BME280;68206;59.956;30.234;2023-10-08T00:21:47;98128.69;;;2.84;77.77
78855;BME280;68206;59.956;30.234;2023-10-08T00:24:21;98133.91;;;2.84;77.92
78855;BME280;68206;59.956;30.234;2023-10-08T00:26:55;98141.78;;;2.84;78.24
78855;BME280;68206;59.956;30.234;2023-10-08T00:29:24;98136.47;;;2.86;77.81
78855;BME280;68206;59.956;30.234;2023-10-08T00:31:52;98136.25;;;2.92;77.62
78855;BME280;68206;59.956;30.234;2023-10-08T00:34:24;98146.56;;;2.95;77.48
78855;BME280;68206;59.956;30.234;2023-10-08T00:36:54;98150.91;;;2.96;77.50
78855;BME280;68206;59.956;30.234;2023-10-08T00:39:24;98146.56;;;2.95;77.53
78855;BME280;68206;59.956;30.234;2023-10-08T00:41:54;98145.66;;;2.96;77.88
78855;BME280;68206;59.956;30.234;2023-10-08T00:44:26;98153.56;;;2.94;77.35
78855;BME280;68206;59.956;30.234;2023-10-08T00:46:58;98137.81;;;2.96;77.89
78855;BME280;68206;59.956;30.234;2023-10-08T00:49:30;98157.66;;;3.01;77.44
78855;BME280;68206;59.956;30.234;2023-10-08T00:52:15;98164.91;;;2.95;77.26
78855;BME280;68206;59.956;30.234;2023-10-08T00:54:58;98151.03;;;2.93;78.12
78855;BME280;68206;59.956;30.234;2023-10-08T00:57:38;98145.91;;;2.90;78.22
78855;BME280;68206;59.956;30.234;2023-10-08T01:00:10;98155.53;;;2.89;77.75
78855;BME280;68206;59.956;30.234;2023-10-08T01:02:49;98151.16;;;2.90;77.79
78855;BME280;68206;59.956;30.234;2023-10-08T01:05:28;98146.03;;;2.87;77.25
78855;BME280;68206;59.956;30.234;2023-10-08T01:08:16;98158.34;;;2.84;78.23
78855;BME280;68206;59.956;30.234;2023-10-08T01:10:51;98154.91;;;2.82;77.70
78855;BME280;68206;59.956;30.234;2023-10-08T01:13:30;98157.63;;;2.81;77.78
78855;BME280;68206;59.956;30.234;2023-10-08T01:16:10;98159.47;;;2.77;77.40
78855;BME280;68206;59.956;30.234;2023-10-08T01:18:38;98167.28;;;2.79;77.53
78855;BME280;68206;59.956;30.234;2023-10-08T01:21:10;98162.00;;;2.80;77.56
78855;BME280;68206;59.956;30.234;2023-10-08T01:23:46;98162.91;;;2.79;77.25
78855;BME280;68206;59.956;30.234;2023-10-08T01:26:20;98158.69;;;2.75;77.77
78855;BME280;68206;59.956;30.234;2023-10-08T01:28:50;98169.22;;;2.74;77.61
78855;BME280;68206;59.956;30.234;2023-10-08T01:31:19;98170.13;;;2.73;77.72
78855;BME280;68206;59.956;30.234;2023-10-08T01:33:48;98171.84;;;2.74;77.79
78855;BME280;68206;59.956;30.234;2023-10-08T01:36:17;98185.03;;;2.71;77.69
78855;BME280;68206;59.956;30.234;2023-10-08T01:38:47;98182.56;;;2.68;78.03
78855;BME280;68206;59.956;30.234;2023-10-08T01:41:16;98186.59;;;2.75;78.01
78855;BME280;68206;59.956;30.234;2023-10-08T01:43:47;98181.69;;;2.67;77.85
78855;BME280;68206;59.956;30.234;2023-10-08T01:46:16;98184.31;;;2.67;77.74
78855;BME280;68206;59.956;30.234;2023-10-08T01:48:49;98178.84;;;2.73;77.92
78855;BME280;68206;59.956;30.234;2023-10-08T01:51:27;98188.31;;;2.76;78.05
78855;BME280;68206;59.956;30.234;2023-10-08T01:54:05;98187.66;;;2.71;77.57
78855;BME280;68206;59.956;30.234;2023-10-08T01:56:39;98181.56;;;2.70;77.54
78855;BME280;68206;59.956;30.234;2023-10-08T01:59:10;98191.19;;;2.70;78.31
78855;BME280;68206;59.956;30.234;2023-10-08T02:01:42;98198.06;;;2.72;77.94
78855;BME280;68206;59.956;30.234;2023-10-08T02:04:12;98186.78;;;2.70;77.72
78855;BME280;68206;59.956;30.234;2023-10-08T02:06:44;98191.97;;;2.72;77.41
78855;BME280;68206;59.956;30.234;2023-10-08T02:09:15;98204.16;;;2.73;77.45
78855;BME280;68206;59.956;30.234;2023-10-08T02:11:45;98200.78;;;2.69;77.50
78855;BME280;68206;59.956;30.234;2023-10-08T02:14:19;98194.69;;;2.69;77.59
78855;BME280;68206;59.956;30.234;2023-10-08T02:16:50;98213.25;;;2.63;78.16
78855;BME280;68206;59.956;30.234;2023-10-08T02:19:23;98213.34;;;2.61;77.76
78855;BME280;68206;59.956;30.234;2023-10-08T02:21:56;98215.72;;;2.67;77.86
78855;BME280;68206;59.956;30.234;2023-10-08T02:24:26;98214.81;;;2.68;77.98
78855;BME280;68206;59.956;30.234;2023-10-08T02:26:57;98219.91;;;2.71;77.62
78855;BME280;68206;59.956;30.234;2023-10-08T02:29:29;98223.44;;;2.70;77.86
78855;BME280;68206;59.956;30.234;2023-10-08T02:31:58;98227.09;;;2.66;77.73
78855;BME280;68206;59.956;30.234;2023-10-08T02:34:27;98234.75;;;2.71;77.74
78855;BME280;68206;59.956;30.234;2023-10-08T02:36:55;98239.38;;;2.64;77.96
78855;BME280;68206;59.956;30.234;2023-10-08T02:39:24;98239.31;;;2.66;77.97
78855;BME280;68206;59.956;30.234;2023-10-08T02:41:55;98235.75;;;2.68;77.81
78855;BME280;68206;59.956;30.234;2023-10-08T02:44:26;98241.13;;;2.64;77.67
78855;BME280;68206;59.956;30.234;2023-10-08T02:46:55;98235.97;;;2.62;77.92
78855;BME280;68206;59.956;30.234;2023-10-08T02:49:24;98249.06;;;2.62;78.39
78855;BME280;68206;59.956;30.234;2023-10-08T02:51:53;98237.78;;;2.60;77.94
78855;BME280;68206;59.956;30.234;2023-10-08T02:54:27;98248.13;;;2.63;78.57
78855;BME280;68206;59.956;30.234;2023-10-08T02:57:04;98245.63;;;2.60;78.08
78855;BME280;68206;59.956;30.234;2023-10-08T02:59:37;98254.09;;;2.67;78.41
78855;BME280;68206;59.956;30.234;2023-10-08T03:02:12;98261.16;;;2.65;78.27
78855;BME280;68206;59.956;30.234;2023-10-08T03:04:48;98262.81;;;2.67;78.18
78855;BME280;68206;59.956;30.234;2023-10-08T03:07:20;98261.91;;;2.68;78.31
78855;BME280;68206;59.956;30.234;2023-10-08T03:10:00;98271.53;;;2.68;78.09
78855;BME280;68206;59.956;30.234;2023-10-08T03:12:34;98268.09;;;2.66;78.89
78855;BME280;68206;59.956;30.234;2023-10-08T03:15:04;98273.28;;;2.67;78.39
78855;BME280;68206;59.956;30.234;2023-10-08T03:17:40;98273.28;;;2.67;78.00
78855;BME280;68206;59.956;30.234;2023-10-08T03:20:17;98275.81;;;2.69;78.64
78855;BME280;68206;59.956;30.234;2023-10-08T03:23:07;98281.84;;;2.71;78.61
78855;BME280;68206;59.956;30.234;2023-10-08T03:25:41;98282.63;;;2.74;78.14
78855;BME280;68206;59.956;30.234;2023-10-08T03:28:14;98293.09;;;2.74;78.42
78855;BME280;68206;59.956;30.234;2023-10-08T03:30:44;98299.16;;;2.75;78.56
78855;BME280;68206;59.956;30.234;2023-10-08T03:33:18;98291.25;;;2.76;78.64
78855;BME280;68206;59.956;30.234;2023-10-08T03:35:51;98306.03;;;2.77;78.08
78855;BME280;68206;59.956;30.234;2023-10-08T03:38:22;98309.56;;;2.76;77.83
78855;BME280;68206;59.956;30.234;2023-10-08T03:41:11;98305.13;;;2.78;78.25
78855;BME280;68206;59.956;30.234;2023-10-08T03:43:45;98320.84;;;2.78;78.24
78855;BME280;68206;59.956;30.234;2023-10-08T03:46:20;98316.50;;;2.77;78.24
78855;BME280;68206;59.956;30.234;2023-10-08T03:48:51;98327.88;;;2.76;78.09
78855;BME280;68206;59.956;30.234;2023-10-08T03:51:19;98327.88;;;2.76;78.22
78855;BME280;68206;59.956;30.234;2023-10-08T03:53:48;98318.41;;;2.74;78.09
78855;BME280;68206;59.956;30.234;2023-10-08T03:56:26;98334.84;;;2.77;77.80
78855;BME280;68206;59.956;30.234;2023-10-08T03:58:58;98335.75;;;2.76;78.25
78855;BME280;68206;59.956;30.234;2023-10-08T04:01:31;98335.78;;;2.75;78.64
78855;BME280;68206;59.956;30.234;2023-10-08T04:04:02;98345.31;;;2.77;78.66
78855;BME280;68206;59.956;30.234;2023-10-08T04:06:31;98337.50;;;2.76;78.66
78855;BME280;68206;59.956;30.234;2023-10-08T04:09:05;98331.31;;;2.78;78.68
78855;BME280;68206;59.956;30.234;2023-10-08T04:11:43;98348.03;;;2.74;78.43
78855;BME280;68206;59.956;30.234;2023-10-08T04:14:26;98350.59;;;2.76;78.84
78855;BME280;68206;59.956;30.234;2023-10-08T04:16:57;98363.44;;;2.82;78.13
78855;BME280;68206;59.956;30.234;2023-10-08T04:19:26;98367.72;;;2.84;78.25
78855;BME280;68206;59.956;30.234;2023-10-08T04:21:55;98371.16;;;2.87;77.87
78855;BME280;68206;59.956;30.234;2023-10-08T04:24:25;98375.59;;;2.84;77.96
78855;BME280;68206;59.956;30.234;2023-10-08T04:27:02;98386.78;;;2.88;78.00
78855;BME280;68206;59.956;30.234;2023-10-08T04:29:34;98390.16;;;2.92;77.82
78855;BME280;68206;59.956;30.234;2023-10-08T04:32:05;98383.44;;;2.84;77.96
78855;BME280;68206;59.956;30.234;2023-10-08T04:34:39;98398.25;;;2.86;78.04
78855;BME280;68206;59.956;30.234;2023-10-08T04:37:14;98409.41;;;2.91;78.24
78855;BME280;68206;59.956;30.234;2023-10-08T04:39:47;98395.56;;;2.87;78.18
78855;BME280;68206;59.956;30.234;2023-10-08T04:42:25;98416.34;;;2.92;77.43
78855;BME280;68206;59.956;30.234;2023-10-08T04:44:55;98419.97;;;2.88;77.61
78855;BME280;68206;59.956;30.234;2023-10-08T04:47:25;98415.53;;;2.90;77.77
78855;BME280;68206;59.956;30.234;2023-10-08T04:50:00;98416.34;;;2.92;77.58
78855;BME280;68206;59.956;30.234;2023-10-08T04:52:32;98445.22;;;2.89;77.37
78855;BME280;68206;59.956;30.234;2023-10-08T04:55:12;98435.66;;;2.88;77.25
78855;BME280;68206;59.956;30.234;2023-10-08T04:57:47;98433.16;;;2.84;77.57
78855;BME280;68206;59.956;30.234;2023-10-08T05:00:21;98432.34;;;2.82;77.83
78855;BME280;68206;59.956;30.234;2023-10-08T05:03:08;98449.91;;;2.80;77.68
78855;BME280;68206;59.956;30.234;2023-10-08T05:05:42;98445.56;;;2.79;77.96
78855;BME280;68206;59.956;30.234;2023-10-08T05:08:34;98462.88;;;2.83;77.52
78855;BME280;68206;59.956;30.234;2023-10-08T05:11:14;98459.13;;;2.91;77.48
78855;BME280;68206;59.956;30.234;2023-10-08T05:13:52;98458.09;;;2.95;77.67
78855;BME280;68206;59.956;30.234;2023-10-08T05:16:31;98478.31;;;2.91;77.80
78855;BME280;68206;59.956;30.234;2023-10-08T05:19:11;98479.06;;;2.95;77.77
78855;BME280;68206;59.956;30.234;2023-10-08T05:22:04;98487.94;;;2.91;77.19
78855;BME280;68206;59.956;30.234;2023-10-08T05:24:47;98489.72;;;2.89;77.45
78855;BME280;68206;59.956;30.234;2023-10-08T05:27:35;98496.53;;;2.94;77.61
78855;BME280;68206;59.956;30.234;2023-10-08T05:30:22;98491.25;;;2.96;77.42
78855;BME280;68206;59.956;30.234;2023-10-08T05:32:58;98485.09;;;2.97;77.27
78855;BME280;68206;59.956;30.234;2023-10-08T05:35:42;98496.25;;;3.02;77.38
78855;BME280;68206;59.956;30.234;2023-10-08T05:38:19;98506.66;;;3.05;77.35
78855;BME280;68206;59.956;30.234;2023-10-08T05:40:52;98504.94;;;3.04;76.85
78855;BME280;68206;59.956;30.234;2023-10-08T05:43:40;98508.44;;;3.03;76.95
78855;BME280;68206;59.956;30.234;2023-10-08T05:46:22;98504.81;;;3.07;77.22
78855;BME280;68206;59.956;30.234;2023-10-08T05:49:10;98522.34;;;3.05;76.69
78855;BME280;68206;59.956;30.234;2023-10-08T05:52:06;98539.66;;;3.09;76.89
78855;BME280;68206;59.956;30.234;2023-10-08T05:54:51;98533.31;;;3.16;76.85
78855;BME280;68206;59.956;30.234;2023-10-08T05:57:37;98538.44;;;3.19;76.59
78855;BME280;68206;59.956;30.234;2023-10-08T06:00:07;98527.94;;;3.19;76.53
78855;BME280;68206;59.956;30.234;2023-10-08T06:02:57;98552.34;;;3.21;76.83
78855;BME280;68206;59.956;30.234;2023-10-08T06:05:42;98560.19;;;3.21;76.30
78855;BME280;68206;59.956;30.234;2023-10-08T06:08:14;98559.16;;;3.25;76.35
78855;BME280;68206;59.956;30.234;2023-10-08T06:10:49;98560.19;;;3.21;76.04
78855;BME280;68206;59.956;30.234;2023-10-08T06:13:24;98581.84;;;3.26;76.37
78855;BME280;68206;59.956;30.234;2023-10-08T06:16:11;98565.13;;;3.30;76.29
78855;BME280;68206;59.956;30.234;2023-10-08T06:18:58;98587.03;;;3.28;76.73
78855;BME280;68206;59.956;30.234;2023-10-08T06:21:28;98580.84;;;3.30;76.60
78855;BME280;68206;59.956;30.234;2023-10-08T06:23:56;98585.97;;;3.33;76.65
78855;BME280;68206;59.956;30.234;2023-10-08T06:26:25;98604.13;;;3.38;76.05
78855;BME280;68206;59.956;30.234;2023-10-08T06:28:54;98604.84;;;3.43;75.95
78855;BME280;68206;59.956;30.234;2023-10-08T06:31:25;98603.84;;;3.47;76.19
78855;BME280;68206;59.956;30.234;2023-10-08T06:33:55;98615.00;;;3.52;75.72
78855;BME280;68206;59.956;30.234;2023-10-08T06:36:24;98620.94;;;3.57;76.02
78855;BME280;68206;59.956;30.234;2023-10-08T06:38:55;98627.69;;;3.64;75.89
78855;BME280;68206;59.956;30.234;2023-10-08T06:41:26;98641.69;;;3.63;75.43
78855;BME280;68206;59.956;30.234;2023-10-08T06:44:15;98638.94;;;3.68;75.25
78855;BME280;68206;59.956;30.234;2023-10-08T06:46:44;98649.34;;;3.69;75.48
78855;BME280;68206;59.956;30.234;2023-10-08T06:49:13;98652.59;;;3.76;75.57
78855;BME280;68206;59.956;30.234;2023-10-08T06:51:43;98663.84;;;3.79;75.21
78855;BME280;68206;59.956;30.234;2023-10-08T06:54:13;98672.28;;;3.87;75.04
78855;BME280;68206;59.956;30.234;2023-10-08T06:56:45;98674.66;;;3.95;75.18
78855;BME280;68206;59.956;30.234;2023-10-08T06:59:20;98683.19;;;4.00;74.82
78855;BME280;68206;59.956;30.234;2023-10-08T07:01:51;98689.22;;;4.03;74.58
78855;BME280;68206;59.956;30.234;2023-10-08T07:04:19;98688.34;;;4.03;74.38
78855;BME280;68206;59.956;30.234;2023-10-08T07:06:50;98687.44;;;4.04;74.35
78855;BME280;68206;59.956;30.234;2023-10-08T07:09:20;98697.13;;;4.02;74.44
78855;BME280;68206;59.956;30.234;2023-10-08T07:11:57;98712.78;;;4.05;74.56
78855;BME280;68206;59.956;30.234;2023-10-08T07:14:33;98716.38;;;4.01;74.63
78855;BME280;68206;59.956;30.234;2023-10-08T07:17:01;98725.75;;;4.08;74.56
78855;BME280;68206;59.956;30.234;2023-10-08T07:19:35;98731.91;;;4.07;74.50
78855;BME280;68206;59.956;30.234;2023-10-08T07:22:07;98740.69;;;4.06;73.84
78855;BME280;68206;59.956;30.234;2023-10-08T07:24:53;98737.91;;;4.11;74.04
78855;BME280;68206;59.956;30.234;2023-10-08T07:27:22;98745.44;;;4.20;74.02
78855;BME280;68206;59.956;30.234;2023-10-08T07:29:58;98740.84;;;4.26;74.58
78855;BME280;68206;59.956;30.234;2023-10-08T07:32:30;98753.88;;;4.29;74.09
78855;BME280;68206;59.956;30.234;2023-10-08T07:34:59;98762.53;;;4.31;73.51
78855;BME280;68206;59.956;30.234;2023-10-08T07:37:43;98775.34;;;4.40;73.26
78855;BME280;68206;59.956;30.234;2023-10-08T07:40:14;98782.13;;;4.46;73.49
78855;BME280;68206;59.956;30.234;2023-10-08T07:42:42;98779.22;;;4.54;73.47
78855;BME280;68206;59.956;30.234;2023-10-08T07:45:13;98792.41;;;4.52;73.05
78855;BME280;68206;59.956;30.234;2023-10-08T07:47:44;98807.84;;;4.61;73.63
78855;BME280;68206;59.956;30.234;2023-10-08T07:50:13;98801.59;;;4.64;72.72
78855;BME280;68206;59.956;30.234;2023-10-08T07:52:43;98808.56;;;4.65;72.71
78855;BME280;68206;59.956;30.234;2023-10-08T07:55:13;98810.34;;;4.64;72.78
78855;BME280;68206;59.956;30.234;2023-10-08T07:57:45;98821.88;;;4.60;72.96
78855;BME280;68206;59.956;30.234;2023-10-08T08:00:16;98828.53;;;4.69;73.16
78855;BME280;68206;59.956;30.234;2023-10-08T08:02:51;98850.41;;;4.69;73.16
78855;BME280;68206;59.956;30.234;2023-10-08T08:05:23;98854.94;;;4.66;72.63
78855;BME280;68206;59.956;30.234;2023-10-08T08:07:53;98856.53;;;4.70;72.95
78855;BME280;68206;59.956;30.234;2023-10-08T08:10:25;98859.75;;;4.78;72.98
78855;BME280;68206;59.956;30.234;2023-10-08T08:12:53;98867.72;;;4.75;72.85
78855;BME280;68206;59.956;30.234;2023-10-08T08:15:24;98883.59;;;4.72;73.02
78855;BME280;68206;59.956;30.234;2023-10-08T08:17:54;98886.44;;;4.66;73.04
78855;BME280;68206;59.956;30.234;2023-10-08T08:20:23;98882.22;;;4.62;72.80
78855;BME280;68206;59.956;30.234;2023-10-08T08:23:02;98902.72;;;4.75;72.66
78855;BME280;68206;59.956;30.234;2023-10-08T08:25:39;98900.22;;;4.72;72.64
78855;BME280;68206;59.956;30.234;2023-10-08T08:28:22;98913.97;;;4.79;72.46
78855;BME280;68206;59.956;30.234;2023-10-08T08:30:52;98906.09;;;4.79;71.91
78855;BME280;68206;59.956;30.234;2023-10-08T08:33:22;98914.16;;;4.74;72.37
78855;BME280;68206;59.956;30.234;2023-10-08T08:36:00;98921.03;;;4.77;73.03
78855;BME280;68206;59.956;30.234;2023-10-08T08:38:29;98933.22;;;4.79;72.57
78855;BME280;68206;59.956;30.234;2023-10-08T09:18:00;99045.53;;;5.72;70.43
78855;BME280;68206;59.956;30.234;2023-10-08T11:19:59;99357.88;;;5.65;69.87
78855;BME280;68206;59.956;30.234;2023-10-08T11:22:40;99353.75;;;5.57;70.30
78855;BME280;68206;59.956;30.234;2023-10-08T11:25:21;99363.66;;;5.49;70.78
78855;BME280;68206;59.956;30.234;2023-10-08T11:27:54;99367.19;;;5.48;70.10
78855;BME280;68206;59.956;30.234;2023-10-08T11:30:30;99373.25;;;5.50;71.07
78855;BME280;68206;59.956;30.234;2023-10-08T11:33:02;99381.91;;;5.53;70.70
78855;BME280;68206;59.956;30.234;2023-10-08T11:35:35;99389.81;;;5.53;69.72
78855;BME280;68206;59.956;30.234;2023-10-08T11:38:14;99400.19;;;5.58;70.73
78855;BME280;68206;59.956;30.234;2023-10-08T11:40:50;99406.06;;;5.66;69.85
78855;BME280;68206;59.956;30.234;2023-10-08T11:43:24;99402.56;;;5.65;70.14
78855;BME280;68206;59.956;30.234;2023-10-08T11:45:52;99406.81;;;5.69;70.04
78855;BME280;68206;59.956;30.234;2023-10-08T11:48:21;99413.06;;;5.67;70.32
78855;BME280;68206;59.956;30.234;2023-10-08T11:50:57;99420.03;;;5.68;69.38
78855;BME280;68206;59.956;30.234;2023-10-08T11:53:28;99430.47;;;5.71;70.70
78855;BME280;68206;59.956;30.234;2023-10-08T11:55:58;99440.03;;;5.74;70.51
78855;BME280;68206;59.956;30.234;2023-10-08T11:58:27;99442.75;;;5.71;70.45
78855;BME280;68206;59.956;30.234;2023-10-08T12:01:05;99448.16;;;5.66;69.87
78855;BME280;68206;59.956;30.234;2023-10-08T12:03:33;99453.00;;;5.50;70.43
78855;BME280;68206;59.956;30.234;2023-10-08T12:06:03;99455.69;;;5.49;70.45
78855;BME280;68206;59.956;30.234;2023-10-08T12:08:32;99464.16;;;5.58;71.21
78855;BME280;68206;59.956;30.234;2023-10-08T12:11:07;99471.03;;;5.62;70.98
78855;BME280;68206;59.956;30.234;2023-10-08T12:13:40;99470.94;;;5.67;70.15
78855;BME280;68206;59.956;30.234;2023-10-08T12:16:12;99481.63;;;5.61;70.85
78855;BME280;68206;59.956;30.234;2023-10-08T12:18:45;99484.28;;;5.59;71.06
78855;BME280;68206;59.956;30.234;2023-10-08T12:21:17;99492.03;;;5.64;71.08
78855;BME280;68206;59.956;30.234;2023-10-08T12:23:46;99495.50;;;5.66;71.20
78855;BME280;68206;59.956;30.234;2023-10-08T12:26:14;99502.84;;;5.55;71.45
78855;BME280;68206;59.956;30.234;2023-10-08T12:28:46;99508.91;;;5.57;71.02
78855;BME280;68206;59.956;30.234;2023-10-08T12:31:16;99511.28;;;5.66;71.46
78855;BME280;68206;59.956;30.234;2023-10-08T12:33:48;99521.00;;;5.62;70.53
78855;BME280;68206;59.956;30.234;2023-10-08T12:36:22;99531.78;;;5.55;70.96
78855;BME280;68206;59.956;30.234;2023-10-08T12:38:52;99530.41;;;5.40;71.01
78855;BME280;68206;59.956;30.234;2023-10-08T12:41:25;99541.97;;;5.35;71.18
78855;BME280;68206;59.956;30.234;2023-10-08T12:43:55;99548.81;;;5.40;70.84
78855;BME280;68206;59.956;30.234;2023-10-08T12:46:26;99558.50;;;5.38;71.54
78855;BME280;68206;59.956;30.234;2023-10-08T12:48:59;99555.19;;;5.32;70.89
78855;BME280;68206;59.956;30.234;2023-10-08T12:51:30;99566.66;;;5.29;71.48
78855;BME280;68206;59.956;30.234;2023-10-08T12:54:01;99564.00;;;5.31;71.48
78855;BME280;68206;59.956;30.234;2023-10-08T12:56:34;99572.66;;;5.34;71.09
78855;BME280;68206;59.956;30.234;2023-10-08T12:59:12;99575.31;;;5.33;71.93
78855;BME280;68206;59.956;30.234;2023-10-08T13:01:48;99575.47;;;5.26;70.89
78855;BME280;68206;59.956;30.234;2023-10-08T13:04:18;99594.72;;;5.28;70.78
78855;BME280;68206;59.956;30.234;2023-10-08T13:06:57;99591.25;;;5.26;71.48
78855;BME280;68206;59.956;30.234;2023-10-08T13:09:29;99600.97;;;5.24;70.70
78855;BME280;68206;59.956;30.234;2023-10-08T13:11:59;99599.00;;;5.31;71.30
78855;BME280;68206;59.956;30.234;2023-10-08T13:14:27;99620.13;;;5.28;70.75
78855;BME280;68206;59.956;30.234;2023-10-08T13:16:56;99614.09;;;5.24;71.16
78855;BME280;68206;59.956;30.234;2023-10-08T13:19:24;99621.91;;;5.27;70.44
78855;BME280;68206;59.956;30.234;2023-10-08T13:21:53;99617.38;;;5.33;71.09
78855;BME280;68206;59.956;30.234;2023-10-08T13:24:23;99619.22;;;5.29;70.65
78855;BME280;68206;59.956;30.234;2023-10-08T13:26:54;99639.56;;;5.22;72.35
78855;BME280;68206;59.956;30.234;2023-10-08T13:29:25;99632.53;;;5.23;71.29
78855;BME280;68206;59.956;30.234;2023-10-08T13:32:00;99654.47;;;5.22;72.03
78855;BME280;68206;59.956;30.234;2023-10-08T13:34:31;99646.84;;;5.11;72.62
78855;BME280;68206;59.956;30.234;2023-10-08T13:37:00;99646.84;;;5.11;73.38
78855;BME280;68206;59.956;30.234;2023-10-08T13:39:29;99662.34;;;5.22;72.88
78855;BME280;68206;59.956;30.234;2023-10-08T13:41:58;99669.94;;;5.33;72.37
78855;BME280;68206;59.956;30.234;2023-10-08T13:44:28;99665.84;;;5.22;71.67
78855;BME280;68206;59.956;30.234;2023-10-08T13:46:57;99678.75;;;5.32;71.20
78855;BME280;68206;59.956;30.234;2023-10-08T13:49:27;99686.69;;;5.30;71.08
78855;BME280;68206;59.956;30.234;2023-10-08T13:51:56;99683.06;;;5.34;71.51
78855;BME280;68206;59.956;30.234;2023-10-08T13:54:25;99687.59;;;5.27;70.13
78855;BME280;68206;59.956;30.234;2023-10-08T13:56:59;99694.66;;;5.25;72.15
78855;BME280;68206;59.956;30.234;2023-10-08T13:59:29;99694.66;;;5.25;71.04
78855;BME280;68206;59.956;30.234;2023-10-08T14:01:59;99705.38;;;5.18;71.57
78855;BME280;68206;59.956;30.234;2023-10-08T14:04:30;99714.13;;;5.18;71.69
78855;BME280;68206;59.956;30.234;2023-10-08T14:07:02;99714.25;;;5.12;71.76
78855;BME280;68206;59.956;30.234;2023-10-08T14:09:31;99729.22;;;5.10;71.35
78855;BME280;68206;59.956;30.234;2023-10-08T14:12:06;99733.63;;;5.08;71.15
78855;BME280;68206;59.956;30.234;2023-10-08T14:14:36;99734.59;;;5.04;70.45
78855;BME280;68206;59.956;30.234;2023-10-08T14:17:10;99726.59;;;5.10;71.90
78855;BME280;68206;59.956;30.234;2023-10-08T14:19:42;99743.28;;;5.06;71.33
78855;BME280;68206;59.956;30.234;2023-10-08T14:22:27;99739.75;;;5.09;71.71
78855;BME280;68206;59.956;30.234;2023-10-08T14:24:55;99742.34;;;5.10;71.89
78855;BME280;68206;59.956;30.234;2023-10-08T14:27:28;99742.53;;;5.01;71.33
78855;BME280;68206;59.956;30.234;2023-10-08T14:29:59;99755.84;;;4.94;71.35
78855;BME280;68206;59.956;30.234;2023-10-08T14:32:32;99758.53;;;4.92;70.72
78855;BME280;68206;59.956;30.234;2023-10-08T14:35:01;99766.47;;;4.89;70.26
78855;BME280;68206;59.956;30.234;2023-10-08T14:37:46;99778.59;;;4.95;71.10
78855;BME280;68206;59.956;30.234;2023-10-08T14:40:32;99770.78;;;4.93;71.43
78855;BME280;68206;59.956;30.234;2023-10-08T14:43:21;99783.03;;;4.93;71.23
78855;BME280;68206;59.956;30.234;2023-10-08T14:45:52;99780.34;;;4.94;71.35
78855;BME280;68206;59.956;30.234;2023-10-08T14:48:23;99788.19;;;4.97;70.56
78855;BME280;68206;59.956;30.234;2023-10-08T14:50:58;99798.72;;;4.96;70.84
78855;BME280;68206;59.956;30.234;2023-10-08T14:53:30;99804.94;;;4.93;70.99
78855;BME280;68206;59.956;30.234;2023-10-08T14:56:03;99820.78;;;4.88;70.41
78855;BME280;68206;59.956;30.234;2023-10-08T14:58:35;99807.69;;;4.87;71.17
78855;BME280;68206;59.956;30.234;2023-10-08T15:01:06;99827.84;;;4.86;70.68
78855;BME280;68206;59.956;30.234;2023-10-08T15:03:36;99821.72;;;4.86;70.73
78855;BME280;68206;59.956;30.234;2023-10-08T15:06:07;99841.03;;;4.82;70.38
78855;BME280;68206;59.956;30.234;2023-10-08T15:08:39;99839.28;;;4.82;70.51
78855;BME280;68206;59.956;30.234;2023-10-08T15:11:10;99834.13;;;4.78;70.20
78855;BME280;68206;59.956;30.234;2023-10-08T15:13:43;99847.25;;;4.79;70.25
78855;BME280;68206;59.956;30.234;2023-10-08T15:16:14;99856.78;;;4.83;70.17
78855;BME280;68206;59.956;30.234;2023-10-08T15:18:46;99871.66;;;4.84;70.03
78855;BME280;68206;59.956;30.234;2023-10-08T15:21:15;99874.31;;;4.83;69.32
78855;BME280;68206;59.956;30.234;2023-10-08T15:23:45;99876.91;;;4.84;70.80
78855;BME280;68206;59.956;30.234;2023-10-08T15:26:13;99880.28;;;4.91;70.43
78855;BME280;68206;59.956;30.234;2023-10-08T15:28:43;99898.59;;;4.94;70.24
78855;BME280;68206;59.956;30.234;2023-10-08T15:31:12;99894.22;;;4.95;69.78
78855;BME280;68206;59.956;30.234;2023-10-08T15:33:40;99898.56;;;4.97;69.83
78855;BME280;68206;59.956;30.234;2023-10-08T15:36:09;99903.81;;;4.97;69.08
78855;BME280;68206;59.956;30.234;2023-10-08T15:38:37;99912.44;;;5.02;69.56
78855;BME280;68206;59.956;30.234;2023-10-08T15:41:06;99912.41;;;5.05;68.78
78855;BME280;68206;59.956;30.234;2023-10-08T15:43:34;99922.97;;;5.02;69.02
78855;BME280;68206;59.956;30.234;2023-10-08T15:46:04;99915.06;;;5.04;68.25
78855;BME280;68206;59.956;30.234;2023-10-08T15:48:32;99923.84;;;5.01;67.91
78855;BME280;68206;59.956;30.234;2023-10-08T15:51:01;99926.44;;;5.04;67.97
78855;BME280;68206;59.956;30.234;2023-10-08T15:53:29;99928.34;;;4.96;67.90
78855;BME280;68206;59.956;30.234;2023-10-08T15:55:58;99937.13;;;4.94;67.52
78855;BME280;68206;59.956;30.234;2023-10-08T15:58:28;99938.94;;;4.92;67.84
78855;BME280;68206;59.956;30.234;2023-10-08T16:01:00;99929.31;;;4.92;68.54
78855;BME280;68206;59.956;30.234;2023-10-08T16:03:30;99933.59;;;4.96;67.92
78855;BME280;68206;59.956;30.234;2023-10-08T16:05:59;99936.31;;;4.92;67.88
78855;BME280;68206;59.956;30.234;2023-10-08T16:08:27;99937.19;;;4.92;67.31